sensor_id;sensor_type;location;lat;lon;timestamp;pressure;altitude;pressure_sealevel;temperature;humidity
49311;BME280;35177;45.900;5.946;2023-02-28T00:00:22;97647.41;;;-0.02;100.00
49311;BME280;35177;45.900;5.946;2023-02-28T00:02:48;97655.66;;;0.04;100.00
49311;BME280;35177;45.900;5.946;2023-02-28T00:05:16;97653.53;;;0.06;100.00
49311;BME280;35177;45.900;5.946;2023-02-28T00:07:42;97653.06;;;0.09;100.00
49311;BME280;35177;45.900;5.946;2023-02-28T00:10:10;97653.88;;;0.09;100.00
49311;BME280;35177;45.900;5.946;2023-02-28T00:12:36;97653.28;;;0.07;100.00
49311;BME280;35177;45.900;5.946;2023-02-28T00:15:05;97667.69;;;0.03;100.00
49311;BME280;35177;45.900;5.946;2023-02-28T00:17:31;97670.16;;;0.04;100.00
49311;BME280;35177;45.900;5.946;2023-02-28T00:19:56;97674.53;;;0.05;100.00
49311;BME280;35177;45.900;5.946;2023-02-28T00:22:27;97675.75;;;-0.03;100.00
49311;BME280;35177;45.900;5.946;2023-02-28T00:24:52;97666.50;;;-0.02;100.00
49311;BME280;35177;45.900;5.946;2023-02-28T00:27:18;97673.84;;;-0.02;100.00
49311;BME280;35177;45.900;5.946;2023-02-28T00:29:43;97682.38;;;0.02;100.00
49311;BME280;35177;45.900;5.946;2023-02-28T00:32:11;97683.38;;;-0.05;100.00
49311;BME280;35177;45.900;5.946;2023-02-28T00:34:36;97685.25;;;-0.05;100.00
49311;BME280;35177;45.900;5.946;2023-02-28T00:37:04;97685.16;;;-0.10;100.00
49311;BME280;35177;45.900;5.946;2023-02-28T00:39:30;97684.34;;;-0.11;100.00
49311;BME280;35177;45.900;5.946;2023-02-28T00:41:56;97683.38;;;-0.05;100.00
49311;BME280;35177;45.900;5.946;2023-02-28T00:44:21;97677.13;;;-0.17;100.00
49311;BME280;35177;45.900;5.946;2023-02-28T00:46:47;97671.78;;;-0.12;100.00
49311;BME280;35177;45.900;5.946;2023-02-28T00:49:12;97670.13;;;-0.13;100.00
49311;BME280;35177;45.900;5.946;2023-02-28T00:51:38;97671.59;;;-0.05;100.00
49311;BME280;35177;45.900;5.946;2023-02-28T00:54:03;97673.84;;;-0.02;100.00
49311;BME280;35177;45.900;5.946;2023-02-28T00:56:29;97677.41;;;-0.02;100.00
49311;BME280;35177;45.900;5.946;2023-02-28T00:58:54;97674.44;;;0.00;100.00
49311;BME280;35177;45.900;5.946;2023-02-28T01:01:20;97678.00;;;0.01;100.00
49311;BME280;35177;45.900;5.946;2023-02-28T01:03:45;97669.72;;;-0.05;100.00
49311;BME280;35177;45.900;5.946;2023-02-28T01:06:11;97669.81;;;0.01;100.00
49311;BME280;35177;45.900;5.946;2023-02-28T01:08:36;97667.00;;;-0.05;100.00
49311;BME280;35177;45.900;5.946;2023-02-28T01:11:12;97679.88;;;-0.17;100.00
49311;BME280;35177;45.900;5.946;2023-02-28T01:13:40;97677.63;;;-0.20;100.00
49311;BME280;35177;45.900;5.946;2023-02-28T01:16:05;97677.63;;;-0.20;100.00
49311;BME280;35177;45.900;5.946;2023-02-28T01:18:31;97682.25;;;-0.21;100.00
49311;BME280;35177;45.900;5.946;2023-02-28T01:20:57;97685.19;;;-0.22;100.00
49311;BME280;35177;45.900;5.946;2023-02-28T01:23:23;97689.03;;;-0.23;100.00
49311;BME280;35177;45.900;5.946;2023-02-28T01:25:49;97684.00;;;-0.14;100.00
49311;BME280;35177;45.900;5.946;2023-02-28T01:28:15;97680.78;;;-0.11;100.00
49311;BME280;35177;45.900;5.946;2023-02-28T01:30:41;97682.81;;;-0.19;100.00
49311;BME280;35177;45.900;5.946;2023-02-28T01:33:07;97676.63;;;-0.14;100.00
49311;BME280;35177;45.900;5.946;2023-02-28T01:35:33;97675.75;;;-0.03;100.00
49311;BME280;35177;45.900;5.946;2023-02-28T01:37:59;97670.19;;;-0.08;100.00
49311;BME280;35177;45.900;5.946;2023-02-28T01:40:25;97669.63;;;-0.10;100.00
49311;BME280;35177;45.900;5.946;2023-02-28T01:42:50;97673.53;;;-0.06;100.00
49311;BME280;35177;45.900;5.946;2023-02-28T01:47:49;97670.72;;;-0.11;100.00
49311;BME280;35177;45.900;5.946;2023-02-28T01:50:21;97675.91;;;-0.09;100.00
49311;BME280;35177;45.900;5.946;2023-02-28T01:52:48;97684.44;;;-0.06;100.00
49311;BME280;35177;45.900;5.946;2023-02-28T01:55:16;97676.84;;;-0.04;100.00
49311;BME280;35177;45.900;5.946;2023-02-28T01:57:48;97675.09;;;-0.10;100.00
49311;BME280;35177;45.900;5.946;2023-02-28T02:00:16;97675.09;;;-0.10;100.00
49311;BME280;35177;45.900;5.946;2023-02-28T02:02:43;97666.56;;;-0.13;100.00
49311;BME280;35177;45.900;5.946;2023-02-28T02:05:18;97679.97;;;-0.12;100.00
49311;BME280;35177;45.900;5.946;2023-02-28T02:07:46;97686.81;;;-0.09;100.00
49311;BME280;35177;45.900;5.946;2023-02-28T02:10:18;97674.16;;;-0.15;100.00
49311;BME280;35177;45.900;5.946;2023-02-28T02:24:59;97656.38;;;-0.18;100.00
49311;BME280;35177;45.900;5.946;2023-02-28T02:27:51;97658.03;;;-0.17;100.00
49311;BME280;35177;45.900;5.946;2023-02-28T02:33:08;97656.78;;;-0.26;100.00
49311;BME280;35177;45.900;5.946;2023-02-28T02:35:42;97655.38;;;-0.29;100.00
49311;BME280;35177;45.900;5.946;2023-02-28T02:43:22;97661.41;;;-0.27;100.00
49311;BME280;35177;45.900;5.946;2023-02-28T02:46:00;97661.63;;;-0.28;100.00
49311;BME280;35177;45.900;5.946;2023-02-28T02:48:30;97655.03;;;-0.33;100.00
49311;BME280;35177;45.900;5.946;2023-02-28T02:51:02;97660.00;;;-0.29;100.00
49311;BME280;35177;45.900;5.946;2023-02-28T02:56:49;97656.63;;;-0.20;100.00
49311;BME280;35177;45.900;5.946;2023-02-28T02:59:18;97653.41;;;-0.17;100.00
49311;BME280;35177;45.900;5.946;2023-02-28T03:01:48;97661.25;;;-0.20;100.00
49311;BME280;35177;45.900;5.946;2023-02-28T03:04:23;97664.56;;;-0.18;100.00
49311;BME280;35177;45.900;5.946;2023-02-28T03:06:51;97675.22;;;-0.17;100.00
49311;BME280;35177;45.900;5.946;2023-02-28T03:09:23;97675.09;;;-0.10;100.00
49311;BME280;35177;45.900;5.946;2023-02-28T03:11:49;97674.97;;;-0.15;100.00
49311;BME280;35177;45.900;5.946;2023-02-28T03:17:28;97659.38;;;-0.20;100.00
49311;BME280;35177;45.900;5.946;2023-02-28T03:20:21;97659.25;;;-0.25;100.00
49311;BME280;35177;45.900;5.946;2023-02-28T03:31:07;97657.72;;;-0.21;100.00
49311;BME280;35177;45.900;5.946;2023-02-28T03:33:42;97658.69;;;-0.27;100.00
49311;BME280;35177;45.900;5.946;2023-02-28T03:36:13;97655.19;;;-0.22;100.00
49311;BME280;35177;45.900;5.946;2023-02-28T03:39:00;97660.78;;;-0.17;100.00
49311;BME280;35177;45.900;5.946;2023-02-28T03:44:15;97661.06;;;-0.30;100.00
49311;BME280;35177;45.900;5.946;2023-02-28T03:47:16;97666.03;;;-0.27;100.00
49311;BME280;35177;45.900;5.946;2023-02-28T03:49:53;97664.34;;;-0.28;100.00
49311;BME280;35177;45.900;5.946;2023-02-28T03:52:23;97664.66;;;-0.42;100.00
49311;BME280;35177;45.900;5.946;2023-02-28T03:54:56;97662.13;;;-0.31;100.00
49311;BME280;35177;45.900;5.946;2023-02-28T03:57:58;97666.53;;;-0.30;100.00
49311;BME280;35177;45.900;5.946;2023-02-28T04:00:32;97662.94;;;-0.31;100.00
49311;BME280;35177;45.900;5.946;2023-02-28T04:03:00;97665.19;;;-0.28;100.00
49311;BME280;35177;45.900;5.946;2023-02-28T04:05:26;97661.97;;;-0.25;100.00
49311;BME280;35177;45.900;5.946;2023-02-28T04:07:52;97668.81;;;-0.39;100.00
49311;BME280;35177;45.900;5.946;2023-02-28T04:10:19;97671.13;;;-0.31;100.00
49311;BME280;35177;45.900;5.946;2023-02-28T04:12:45;97664.69;;;-0.25;100.00
49311;BME280;35177;45.900;5.946;2023-02-28T04:15:10;97671.63;;;-0.34;100.00
49311;BME280;35177;45.900;5.946;2023-02-28T04:17:36;97672.59;;;-0.40;100.00
49311;BME280;35177;45.900;5.946;2023-02-28T04:20:02;97676.19;;;-0.52;100.00
49311;BME280;35177;45.900;5.946;2023-02-28T04:22:29;97681.47;;;-0.33;100.00
49311;BME280;35177;45.900;5.946;2023-02-28T04:24:54;97675.22;;;-0.45;100.00
49311;BME280;35177;45.900;5.946;2023-02-28T04:27:21;97672.88;;;-0.25;100.00
49311;BME280;35177;45.900;5.946;2023-02-28T04:29:46;97669.94;;;-0.23;100.00
49311;BME280;35177;45.900;5.946;2023-02-28T04:32:12;97667.78;;;-0.21;100.00
49311;BME280;35177;45.900;5.946;2023-02-28T04:34:38;97675.47;;;-0.18;100.00
49311;BME280;35177;45.900;5.946;2023-02-28T04:37:04;97669.44;;;-0.20;100.00
49311;BME280;35177;45.900;5.946;2023-02-28T04:39:35;97663.63;;;-0.24;100.00
49311;BME280;35177;45.900;5.946;2023-02-28T04:42:01;97668.38;;;-0.19;100.00
49311;BME280;35177;45.900;5.946;2023-02-28T04:44:26;97668.19;;;-0.29;100.00
49311;BME280;35177;45.900;5.946;2023-02-28T04:46:52;97674.91;;;-0.32;100.00
49311;BME280;35177;45.900;5.946;2023-02-28T04:49:17;97672.06;;;-0.25;100.00
49311;BME280;35177;45.900;5.946;2023-02-28T04:51:43;97666.69;;;-0.20;100.00
49311;BME280;35177;45.900;5.946;2023-02-28T04:54:08;97677.47;;;-0.13;100.00
49311;BME280;35177;45.900;5.946;2023-02-28T04:56:34;97679.91;;;-0.29;100.00
49311;BME280;35177;45.900;5.946;2023-02-28T04:59:00;97677.22;;;-0.41;100.00
49311;BME280;35177;45.900;5.946;2023-02-28T05:01:31;97682.09;;;-0.43;100.00
49311;BME280;35177;45.900;5.946;2023-02-28T05:03:59;97690.16;;;-0.48;100.00
49311;BME280;35177;45.900;5.946;2023-02-28T05:06:26;97681.41;;;-0.50;100.00
49311;BME280;35177;45.900;5.946;2023-02-28T05:08:52;97685.88;;;-0.44;100.00
49311;BME280;35177;45.900;5.946;2023-02-28T05:11:25;97689.13;;;-0.59;100.00
49311;BME280;35177;45.900;5.946;2023-02-28T05:13:51;97697.88;;;-0.57;100.00
49311;BME280;35177;45.900;5.946;2023-02-28T05:16:18;97700.84;;;-0.58;100.00
49311;BME280;35177;45.900;5.946;2023-02-28T05:18:44;97706.50;;;-0.48;100.00
49311;BME280;35177;45.900;5.946;2023-02-28T05:21:48;97709.47;;;-0.38;100.00
49311;BME280;35177;45.900;5.946;2023-02-28T05:24:15;97704.09;;;-0.33;100.00
49311;BME280;35177;45.900;5.946;2023-02-28T05:26:48;97701.88;;;-0.36;100.00
49311;BME280;35177;45.900;5.946;2023-02-28T05:29:14;97700.78;;;-0.35;100.00
49311;BME280;35177;45.900;5.946;2023-02-28T05:31:39;97706.56;;;-0.31;100.00
49311;BME280;35177;45.900;5.946;2023-02-28T05:34:05;97707.78;;;-0.27;100.00
49311;BME280;35177;45.900;5.946;2023-02-28T05:36:31;97710.84;;;-0.23;100.00
49311;BME280;35177;45.900;5.946;2023-02-28T05:38:56;97710.16;;;-0.30;100.00
49311;BME280;35177;45.900;5.946;2023-02-28T05:41:22;97710.50;;;-0.27;100.00
49311;BME280;35177;45.900;5.946;2023-02-28T05:43:48;97707.53;;;-0.25;100.00
49311;BME280;35177;45.900;5.946;2023-02-28T05:46:14;97708.50;;;-0.31;100.00
49311;BME280;35177;45.900;5.946;2023-02-28T05:48:41;97715.09;;;-0.27;100.00
49311;BME280;35177;45.900;5.946;2023-02-28T05:51:08;97708.84;;;-0.28;100.00
49311;BME280;35177;45.900;5.946;2023-02-28T05:53:34;97707.19;;;-0.29;100.00
49311;BME280;35177;45.900;5.946;2023-02-28T05:56:00;97713.78;;;-0.25;100.00
49311;BME280;35177;45.900;5.946;2023-02-28T05:58:26;97705.75;;;-0.31;100.00
49311;BME280;35177;45.900;5.946;2023-02-28T06:00:59;97711.69;;;-0.35;100.00
49311;BME280;35177;45.900;5.946;2023-02-28T06:03:25;97707.31;;;-0.36;100.00
49311;BME280;35177;45.900;5.946;2023-02-28T06:05:50;97706.22;;;-0.35;100.00
49311;BME280;35177;45.900;5.946;2023-02-28T06:08:16;97710.59;;;-0.22;100.00
49311;BME280;35177;45.900;5.946;2023-02-28T06:10:41;97717.13;;;-0.23;100.00
49311;BME280;35177;45.900;5.946;2023-02-28T06:13:07;97729.09;;;-0.24;100.00
49311;BME280;35177;45.900;5.946;2023-02-28T06:15:33;97720.56;;;-0.27;100.00
49311;BME280;35177;45.900;5.946;2023-02-28T06:17:58;97720.66;;;-0.22;100.00
49311;BME280;35177;45.900;5.946;2023-02-28T06:20:25;97717.81;;;-0.27;100.00
49311;BME280;35177;45.900;5.946;2023-02-28T06:22:56;97724.06;;;-0.15;100.00
49311;BME280;35177;45.900;5.946;2023-02-28T06:25:24;97716.50;;;-0.25;100.00
49311;BME280;35177;45.900;5.946;2023-02-28T06:27:49;97731.69;;;-0.17;100.00
49311;BME280;35177;45.900;5.946;2023-02-28T06:30:16;97730.38;;;-0.14;100.00
49311;BME280;35177;45.900;5.946;2023-02-28T06:32:41;97737.38;;;-0.19;100.00
49311;BME280;35177;45.900;5.946;2023-02-28T06:35:07;97737.63;;;-0.20;100.00
49311;BME280;35177;45.900;5.946;2023-02-28T06:37:33;97737.88;;;-0.22;100.00
49311;BME280;35177;45.900;5.946;2023-02-28T06:39:58;97737.50;;;-0.13;100.00
49311;BME280;35177;45.900;5.946;2023-02-28T06:42:24;97738.91;;;-0.11;100.00
49311;BME280;35177;45.900;5.946;2023-02-28T06:44:56;97735.22;;;-0.17;100.00
49311;BME280;35177;45.900;5.946;2023-02-28T06:47:22;97743.16;;;-0.15;100.00
49311;BME280;35177;45.900;5.946;2023-02-28T06:49:48;97744.22;;;-0.16;100.00
49311;BME280;35177;45.900;5.946;2023-02-28T06:52:15;97744.34;;;-0.11;100.00
49311;BME280;35177;45.900;5.946;2023-02-28T06:54:40;97744.09;;;-0.09;100.00
49311;BME280;35177;45.900;5.946;2023-02-28T06:57:06;97749.56;;;-0.09;100.00
49311;BME280;35177;45.900;5.946;2023-02-28T06:59:32;97744.44;;;-0.06;100.00
49311;BME280;35177;45.900;5.946;2023-02-28T07:01:57;97744.06;;;0.03;100.00
49311;BME280;35177;45.900;5.946;2023-02-28T07:04:23;97742.94;;;0.15;100.00
49311;BME280;35177;45.900;5.946;2023-02-28T07:06:49;97733.94;;;0.15;100.00
49311;BME280;35177;45.900;5.946;2023-02-28T07:09:14;97737.13;;;0.12;100.00
49311;BME280;35177;45.900;5.946;2023-02-28T07:11:40;97731.94;;;0.10;100.00
49311;BME280;35177;45.900;5.946;2023-02-28T07:14:07;97744.41;;;0.06;100.00
49311;BME280;35177;45.900;5.946;2023-02-28T07:16:33;97741.28;;;0.14;100.00
49311;BME280;35177;45.900;5.946;2023-02-28T07:18:59;97747.78;;;0.13;100.00
49311;BME280;35177;45.900;5.946;2023-02-28T07:21:24;97752.03;;;-0.08;100.00
49311;BME280;35177;45.900;5.946;2023-02-28T07:23:50;97753.38;;;-0.22;100.00
49311;BME280;35177;45.900;5.946;2023-02-28T07:26:18;97754.41;;;-0.11;100.00
49311;BME280;35177;45.900;5.946;2023-02-28T07:28:45;97756.63;;;0.04;100.00
49311;BME280;35177;45.900;5.946;2023-02-28T07:31:12;97751.72;;;0.18;100.00
49311;BME280;35177;45.900;5.946;2023-02-28T07:33:39;97752.41;;;0.25;100.00
49311;BME280;35177;45.900;5.946;2023-02-28T07:36:15;97757.34;;;0.28;100.00
49311;BME280;35177;45.900;5.946;2023-02-28T07:38:44;97761.69;;;0.12;100.00
49311;BME280;35177;45.900;5.946;2023-02-28T07:41:10;97763.94;;;0.15;100.00
49311;BME280;35177;45.900;5.946;2023-02-28T07:43:36;97764.41;;;0.12;100.00
49311;BME280;35177;45.900;5.946;2023-02-28T07:46:04;97770.81;;;0.18;100.00
49311;BME280;35177;45.900;5.946;2023-02-28T07:48:30;97768.22;;;0.40;100.00
49311;BME280;35177;45.900;5.946;2023-02-28T07:50:57;97769.66;;;0.30;100.00
49311;BME280;35177;45.900;5.946;2023-02-28T07:53:23;97764.50;;;0.46;100.00
49311;BME280;35177;45.900;5.946;2023-02-28T07:55:49;97772.59;;;0.41;100.00
49311;BME280;35177;45.900;5.946;2023-02-28T07:58:14;97773.94;;;0.55;100.00
49311;BME280;35177;45.900;5.946;2023-02-28T08:00:40;97777.28;;;0.74;100.00
49311;BME280;35177;45.900;5.946;2023-02-28T08:03:05;97773.97;;;0.89;100.00
49311;BME280;35177;45.900;5.946;2023-02-28T08:05:31;97774.63;;;0.96;100.00
49311;BME280;35177;45.900;5.946;2023-02-28T08:07:57;97764.38;;;1.04;100.00
49311;BME280;35177;45.900;5.946;2023-02-28T08:10:22;97775.28;;;1.04;100.00
49311;BME280;35177;45.900;5.946;2023-02-28T08:12:49;97774.78;;;1.07;100.00
49311;BME280;35177;45.900;5.946;2023-02-28T08:15:15;97773.28;;;1.16;100.00
49311;BME280;35177;45.900;5.946;2023-02-28T08:17:40;97770.28;;;1.35;100.00
49311;BME280;35177;45.900;5.946;2023-02-28T08:20:06;97760.06;;;1.47;100.00
49311;BME280;35177;45.900;5.946;2023-02-28T08:22:32;97770.91;;;1.59;100.00
49311;BME280;35177;45.900;5.946;2023-02-28T08:24:58;97765.47;;;1.42;100.00
49311;BME280;35177;45.900;5.946;2023-02-28T08:27:23;97768.84;;;1.49;100.00
49311;BME280;35177;45.900;5.946;2023-02-28T08:29:49;97768.91;;;1.54;100.00
49311;BME280;35177;45.900;5.946;2023-02-28T08:32:14;97765.38;;;1.54;100.00
49311;BME280;35177;45.900;5.946;2023-02-28T08:34:40;97764.09;;;1.62;100.00
49311;BME280;35177;45.900;5.946;2023-02-28T08:37:06;97772.38;;;1.67;100.00
49311;BME280;35177;45.900;5.946;2023-02-28T08:39:34;97766.31;;;1.65;100.00
49311;BME280;35177;45.900;5.946;2023-02-28T08:42:01;97769.94;;;1.70;100.00
49311;BME280;35177;45.900;5.946;2023-02-28T08:44:27;97765.19;;;1.83;100.00
49311;BME280;35177;45.900;5.946;2023-02-28T08:46:53;97763.09;;;1.68;100.00
49311;BME280;35177;45.900;5.946;2023-02-28T08:49:18;97768.56;;;1.68;100.00
49311;BME280;35177;45.900;5.946;2023-02-28T08:51:44;97775.16;;;1.72;100.00
49311;BME280;35177;45.900;5.946;2023-02-28T08:54:09;97774.41;;;1.99;100.00
49311;BME280;35177;45.900;5.946;2023-02-28T08:56:38;97774.50;;;2.31;100.00
49311;BME280;35177;45.900;5.946;2023-02-28T08:59:03;97775.56;;;2.85;100.00
49311;BME280;35177;45.900;5.946;2023-02-28T09:01:29;97778.94;;;3.30;100.00
49311;BME280;35177;45.900;5.946;2023-02-28T09:03:56;97782.13;;;3.54;100.00
49311;BME280;35177;45.900;5.946;2023-02-28T09:06:24;97778.38;;;3.28;100.00
49311;BME280;35177;45.900;5.946;2023-02-28T09:08:51;97771.22;;;3.75;100.00
49311;BME280;35177;45.900;5.946;2023-02-28T09:11:17;97780.97;;;3.50;100.00
49311;BME280;35177;45.900;5.946;2023-02-28T09:13:44;97780.75;;;3.57;100.00
49311;BME280;35177;45.900;5.946;2023-02-28T09:16:12;97779.75;;;3.73;100.00
49311;BME280;35177;45.900;5.946;2023-02-28T09:18:38;97773.19;;;3.79;100.00
49311;BME280;35177;45.900;5.946;2023-02-28T09:21:05;97762.59;;;4.09;100.00
49311;BME280;35177;45.900;5.946;2023-02-28T09:23:31;97763.03;;;4.69;95.81
49311;BME280;35177;45.900;5.946;2023-02-28T09:25:57;97755.91;;;4.99;93.54
49311;BME280;35177;45.900;5.946;2023-02-28T09:28:22;97753.97;;;5.10;89.04
49311;BME280;35177;45.900;5.946;2023-02-28T09:30:51;97756.09;;;5.59;79.68
49311;BME280;35177;45.900;5.946;2023-02-28T09:33:17;97754.56;;;6.14;80.90
49311;BME280;35177;45.900;5.946;2023-02-28T09:35:46;97753.94;;;7.12;74.60
49311;BME280;35177;45.900;5.946;2023-02-28T09:38:11;97760.97;;;6.94;64.80
49311;BME280;35177;45.900;5.946;2023-02-28T09:40:44;97764.94;;;7.46;68.15
49311;BME280;35177;45.900;5.946;2023-02-28T09:43:14;97769.84;;;6.46;68.02
49311;BME280;35177;45.900;5.946;2023-02-28T09:45:42;97769.91;;;5.23;77.86
49311;BME280;35177;45.900;5.946;2023-02-28T09:48:12;97781.16;;;4.70;86.30
49311;BME280;35177;45.900;5.946;2023-02-28T09:50:46;97775.09;;;4.68;87.29
49311;BME280;35177;45.900;5.946;2023-02-28T09:53:26;97771.53;;;4.57;90.46
49311;BME280;35177;45.900;5.946;2023-02-28T09:55:55;97777.00;;;4.42;87.88
49311;BME280;35177;45.900;5.946;2023-02-28T09:58:31;97768.22;;;4.55;96.06
49311;BME280;35177;45.900;5.946;2023-02-28T10:01:12;97772.06;;;4.59;85.14
49311;BME280;35177;45.900;5.946;2023-02-28T10:06:38;97773.50;;;5.24;80.69
49311;BME280;35177;45.900;5.946;2023-02-28T10:09:11;97765.22;;;5.39;81.55
49311;BME280;35177;45.900;5.946;2023-02-28T10:11:40;97769.84;;;5.54;85.36
49311;BME280;35177;45.900;5.946;2023-02-28T10:16:43;97770.47;;;4.99;81.48
49311;BME280;35177;45.900;5.946;2023-02-28T10:19:38;97760.56;;;5.14;78.50
49311;BME280;35177;45.900;5.946;2023-02-28T10:24:49;97768.25;;;5.33;81.53
49311;BME280;35177;45.900;5.946;2023-02-28T10:27:19;97764.41;;;4.97;88.16
49311;BME280;35177;45.900;5.946;2023-02-28T10:29:47;97762.47;;;4.88;91.29
49311;BME280;35177;45.900;5.946;2023-02-28T10:32:34;97771.25;;;4.59;89.51
49311;BME280;35177;45.900;5.946;2023-02-28T10:37:32;97784.47;;;4.82;86.67
49311;BME280;35177;45.900;5.946;2023-02-28T10:40:04;97784.47;;;4.77;85.89
49311;BME280;35177;45.900;5.946;2023-02-28T10:42:31;97792.16;;;4.60;83.80
49311;BME280;35177;45.900;5.946;2023-02-28T10:45:16;97793.19;;;4.33;96.00
49311;BME280;35177;45.900;5.946;2023-02-28T10:50:32;97791.88;;;4.51;88.28
49311;BME280;35177;45.900;5.946;2023-02-28T10:55:36;97784.22;;;4.99;85.62
49311;BME280;35177;45.900;5.946;2023-02-28T10:58:02;97783.41;;;5.30;93.31
49311;BME280;35177;45.900;5.946;2023-02-28T11:00:34;97786.41;;;5.18;97.03
49311;BME280;35177;45.900;5.946;2023-02-28T11:02:59;97783.13;;;5.01;86.42
49311;BME280;35177;45.900;5.946;2023-02-28T11:08:10;97788.06;;;4.83;92.97
49311;BME280;35177;45.900;5.946;2023-02-28T11:10:38;97793.81;;;4.76;86.78
49311;BME280;35177;45.900;5.946;2023-02-28T11:13:05;97796.53;;;4.61;90.93
49311;BME280;35177;45.900;5.946;2023-02-28T11:15:32;97799.06;;;4.93;89.97
49311;BME280;35177;45.900;5.946;2023-02-28T11:20:54;97798.25;;;4.93;95.18
49311;BME280;35177;45.900;5.946;2023-02-28T11:23:29;97790.00;;;5.13;92.26
49311;BME280;35177;45.900;5.946;2023-02-28T11:25:59;97780.91;;;5.39;89.90
49311;BME280;35177;45.900;5.946;2023-02-28T11:28:35;97775.44;;;5.08;86.72
49311;BME280;35177;45.900;5.946;2023-02-28T11:31:08;97773.75;;;4.96;90.28
49311;BME280;35177;45.900;5.946;2023-02-28T11:33:52;97769.63;;;4.89;90.79
49311;BME280;35177;45.900;5.946;2023-02-28T11:36:23;97768.81;;;5.24;95.32
49311;BME280;35177;45.900;5.946;2023-02-28T11:38:54;97762.50;;;5.19;90.94
49311;BME280;35177;45.900;5.946;2023-02-28T11:44:32;97755.88;;;5.20;81.03
49311;BME280;35177;45.900;5.946;2023-02-28T11:50:04;97745.34;;;5.58;81.10
49311;BME280;35177;45.900;5.946;2023-02-28T11:55:20;97742.38;;;6.25;80.70
49311;BME280;35177;45.900;5.946;2023-02-28T12:06:20;97742.25;;;5.90;75.40
49311;BME280;35177;45.900;5.946;2023-02-28T12:16:44;97741.41;;;5.90;76.70
49311;BME280;35177;45.900;5.946;2023-02-28T12:19:21;97735.31;;;6.08;77.45
49311;BME280;35177;45.900;5.946;2023-02-28T12:27:19;97732.56;;;5.98;80.21
49311;BME280;35177;45.900;5.946;2023-02-28T12:30:05;97724.88;;;6.00;74.80
49311;BME280;35177;45.900;5.946;2023-02-28T12:32:33;97720.53;;;5.73;76.23
49311;BME280;35177;45.900;5.946;2023-02-28T12:40:03;97719.84;;;5.21;80.76
49311;BME280;35177;45.900;5.946;2023-02-28T12:42:38;97718.38;;;5.60;79.88
49311;BME280;35177;45.900;5.946;2023-02-28T12:45:16;97716.94;;;5.78;78.63
49311;BME280;35177;45.900;5.946;2023-02-28T12:47:45;97710.94;;;5.66;74.06
49311;BME280;35177;45.900;5.946;2023-02-28T12:50:13;97708.75;;;5.57;75.74
49311;BME280;35177;45.900;5.946;2023-02-28T12:53:26;97707.09;;;5.56;76.82
49311;BME280;35177;45.900;5.946;2023-02-28T12:55:54;97708.97;;;5.76;78.68
49311;BME280;35177;45.900;5.946;2023-02-28T13:09:30;97699.50;;;6.03;72.76
49311;BME280;35177;45.900;5.946;2023-02-28T13:11:56;97698.84;;;5.56;73.25
49311;BME280;35177;45.900;5.946;2023-02-28T13:14:29;97686.50;;;5.38;74.79
49311;BME280;35177;45.900;5.946;2023-02-28T13:19:28;97695.53;;;5.54;74.90
49311;BME280;35177;45.900;5.946;2023-02-28T13:21:56;97690.88;;;5.55;75.85
49311;BME280;35177;45.900;5.946;2023-02-28T13:24:42;97695.13;;;5.92;83.70
49311;BME280;35177;45.900;5.946;2023-02-28T13:29:39;97679.66;;;6.06;76.26
49311;BME280;35177;45.900;5.946;2023-02-28T13:34:32;97686.66;;;5.78;79.59
49311;BME280;35177;45.900;5.946;2023-02-28T13:42:52;97683.13;;;5.62;79.27
49311;BME280;35177;45.900;5.946;2023-02-28T13:47:56;97685.38;;;5.55;80.42
49311;BME280;35177;45.900;5.946;2023-02-28T14:01:41;97683.94;;;5.73;87.80
49311;BME280;35177;45.900;5.946;2023-02-28T14:04:34;97685.06;;;5.67;81.20
49311;BME280;35177;45.900;5.946;2023-02-28T14:07:06;97682.31;;;5.56;80.33
49311;BME280;35177;45.900;5.946;2023-02-28T14:09:47;97678.72;;;5.66;79.45
49311;BME280;35177;45.900;5.946;2023-02-28T14:18:30;97672.13;;;5.62;83.90
49311;BME280;35177;45.900;5.946;2023-02-28T14:21:35;97680.97;;;5.49;79.37
49311;BME280;35177;45.900;5.946;2023-02-28T14:32:25;97689.28;;;5.33;82.82
49311;BME280;35177;45.900;5.946;2023-02-28T14:37:39;97685.72;;;5.33;82.40
49311;BME280;35177;45.900;5.946;2023-02-28T14:40:19;97677.44;;;5.33;81.61
49311;BME280;35177;45.900;5.946;2023-02-28T14:42:55;97681.00;;;5.33;84.38
49311;BME280;35177;45.900;5.946;2023-02-28T14:45:22;97682.09;;;5.47;87.17
49311;BME280;35177;45.900;5.946;2023-02-28T14:47:49;97673.28;;;5.40;85.06
49311;BME280;35177;45.900;5.946;2023-02-28T14:50:47;97681.25;;;5.42;84.71
49311;BME280;35177;45.900;5.946;2023-02-28T14:53:18;97677.94;;;5.50;86.84
49311;BME280;35177;45.900;5.946;2023-02-28T14:55:46;97676.56;;;5.53;83.78
49311;BME280;35177;45.900;5.946;2023-02-28T14:58:26;97683.75;;;5.43;86.97
49311;BME280;35177;45.900;5.946;2023-02-28T15:00:54;97680.69;;;5.50;87.35
49311;BME280;35177;45.900;5.946;2023-02-28T15:03:23;97684.63;;;5.28;85.24
49311;BME280;35177;45.900;5.946;2023-02-28T15:05:57;97685.44;;;5.29;86.51
49311;BME280;35177;45.900;5.946;2023-02-28T15:08:23;97684.59;;;5.34;90.92
49311;BME280;35177;45.900;5.946;2023-02-28T15:13:20;97677.13;;;5.39;92.05
49311;BME280;35177;45.900;5.946;2023-02-28T15:16:01;97683.50;;;5.35;90.92
49311;BME280;35177;45.900;5.946;2023-02-28T15:21:17;97684.88;;;5.27;94.63
49311;BME280;35177;45.900;5.946;2023-02-28T15:23:50;97690.13;;;5.28;91.35
49311;BME280;35177;45.900;5.946;2023-02-28T15:26:19;97683.22;;;5.36;91.32
49311;BME280;35177;45.900;5.946;2023-02-28T15:28:50;97688.66;;;5.52;93.11
49311;BME280;35177;45.900;5.946;2023-02-28T15:31:32;97684.03;;;5.37;90.42
49311;BME280;35177;45.900;5.946;2023-02-28T15:34:04;97693.72;;;5.19;86.49
49311;BME280;35177;45.900;5.946;2023-02-28T15:36:32;97697.28;;;5.19;89.45
49311;BME280;35177;45.900;5.946;2023-02-28T15:39:00;97694.53;;;5.19;93.76
49311;BME280;35177;45.900;5.946;2023-02-28T15:41:28;97690.16;;;5.08;92.76
49311;BME280;35177;45.900;5.946;2023-02-28T15:44:14;97698.41;;;5.08;95.24
49311;BME280;35177;45.900;5.946;2023-02-28T15:46:43;97696.22;;;4.99;94.02
49311;BME280;35177;45.900;5.946;2023-02-28T15:49:18;97696.50;;;4.93;96.04